createdAt,value
2022-11-09T00:00:14.666Z,0
2022-11-09T00:01:30.969Z,0
2022-11-09T00:02:47.267Z,0
2022-11-09T00:04:02.575Z,0
2022-11-09T00:05:18.863Z,0
2022-11-09T00:06:35.159Z,0
2022-11-09T00:07:51.432Z,0
2022-11-09T00:09:07.739Z,0
2022-11-09T00:10:24.031Z,0
2022-11-09T00:11:40.341Z,0
2022-11-09T00:12:56.623Z,0
2022-11-09T00:14:12.907Z,0
2022-11-09T00:15:29.201Z,0
2022-11-09T00:16:45.493Z,0
2022-11-09T00:18:01.784Z,0
2022-11-09T00:19:18.080Z,0
2022-11-09T00:20:33.386Z,0
2022-11-09T00:21:49.685Z,0
2022-11-09T00:23:05.960Z,0
2022-11-09T00:24:22.268Z,0
2022-11-09T00:25:38.567Z,0
2022-11-09T00:26:54.868Z,0
2022-11-09T00:28:11.152Z,0
2022-11-09T00:29:27.428Z,0
2022-11-09T00:30:43.737Z,0
2022-11-09T00:32:00.012Z,0
2022-11-09T00:33:16.309Z,0
2022-11-09T00:34:32.602Z,0
2022-11-09T00:35:48.893Z,0
2022-11-09T00:37:04.217Z,0
2022-11-09T00:38:20.489Z,0
2022-11-09T00:39:36.789Z,0
2022-11-09T00:40:53.099Z,0
2022-11-09T00:42:09.377Z,0
2022-11-09T00:43:25.661Z,0
2022-11-09T00:44:41.961Z,0
2022-11-09T00:45:58.249Z,0
2022-11-09T00:47:14.554Z,0
2022-11-09T00:48:30.852Z,0
2022-11-09T00:49:47.126Z,0
2022-11-09T00:51:03.443Z,0
2022-11-09T00:52:19.725Z,0
2022-11-09T00:53:35.033Z,0
2022-11-09T00:54:51.313Z,0
2022-11-09T00:56:07.609Z,0
2022-11-09T00:57:23.913Z,0
2022-11-09T00:58:40.230Z,0
2022-11-09T00:59:56.487Z,0
2022-11-09T01:01:12.797Z,0
2022-11-09T01:02:29.077Z,0
2022-11-09T01:03:45.377Z,0
2022-11-09T01:05:01.672Z,0
2022-11-09T01:06:17.948Z,0
2022-11-09T01:07:34.258Z,0
2022-11-09T01:08:50.550Z,0
2022-11-09T01:10:05.850Z,0
2022-11-09T01:11:22.158Z,0
2022-11-09T01:12:38.449Z,0
2022-11-09T01:13:54.724Z,0
2022-11-09T01:15:11.031Z,0
2022-11-09T01:16:27.327Z,0
2022-11-09T01:17:43.614Z,0
2022-11-09T01:18:59.898Z,0
2022-11-09T01:20:16.200Z,0
2022-11-09T01:21:32.479Z,0
2022-11-09T01:22:48.778Z,0
2022-11-09T01:24:05.093Z,0
2022-11-09T01:25:21.370Z,0
2022-11-09T01:26:36.669Z,0
2022-11-09T01:27:52.964Z,0
2022-11-09T01:29:09.249Z,0
2022-11-09T01:30:25.545Z,0
2022-11-09T01:31:41.854Z,0
2022-11-09T01:32:58.132Z,0
2022-11-09T01:34:14.429Z,0
2022-11-09T01:35:30.720Z,0
2022-11-09T01:36:47.026Z,0
2022-11-09T01:38:03.312Z,0
2022-11-09T01:39:19.619Z,0
2022-11-09T01:40:35.885Z,0
2022-11-09T01:41:52.199Z,0
2022-11-09T01:43:07.485Z,0
2022-11-09T01:44:23.805Z,0
2022-11-09T01:45:40.089Z,0
2022-11-09T01:46:56.383Z,0
2022-11-09T01:48:12.664Z,0
2022-11-09T01:49:28.951Z,0
2022-11-09T01:50:45.251Z,0
2022-11-09T01:52:01.568Z,0
2022-11-09T01:53:17.829Z,0
2022-11-09T01:54:34.127Z,0
2022-11-09T01:55:50.412Z,0
2022-11-09T01:57:06.705Z,0
2022-11-09T01:58:23.010Z,0
2022-11-09T01:59:38.310Z,0
2022-11-09T02:00:54.614Z,0
2022-11-09T02:02:10.909Z,0
2022-11-09T02:03:27.184Z,0
2022-11-09T02:04:43.494Z,0
2022-11-09T02:05:59.779Z,0
2022-11-09T02:07:16.059Z,0
2022-11-09T02:08:32.359Z,0
2022-11-09T02:09:48.672Z,0
2022-11-09T02:11:04.944Z,0
2022-11-09T02:12:21.242Z,0
2022-11-09T02:13:37.535Z,0
2022-11-09T02:14:53.836Z,0
2022-11-09T02:16:09.139Z,0
2022-11-09T02:17:25.421Z,0
2022-11-09T02:18:41.720Z,0
2022-11-09T02:19:58.003Z,0
2022-11-09T02:21:14.304Z,0
2022-11-09T02:22:30.585Z,0
2022-11-09T02:23:46.889Z,0
2022-11-09T02:25:03.176Z,0
2022-11-09T02:26:19.481Z,0
2022-11-09T02:27:35.776Z,0
2022-11-09T02:28:52.055Z,0
2022-11-09T02:30:08.341Z,0
2022-11-09T02:31:24.633Z,0
2022-11-09T02:32:39.966Z,0
2022-11-09T02:33:56.256Z,0
2022-11-09T02:35:12.564Z,0
2022-11-09T02:36:28.826Z,0
2022-11-09T02:37:45.112Z,0
2022-11-09T02:39:01.417Z,0
2022-11-09T02:40:17.717Z,0
2022-11-09T02:41:33.996Z,0
2022-11-09T02:42:50.287Z,0
2022-11-09T02:44:06.588Z,0
2022-11-09T02:45:22.887Z,0
2022-11-09T02:46:39.159Z,0
2022-11-09T02:47:55.457Z,0
2022-11-09T02:49:10.776Z,0
2022-11-09T02:50:27.056Z,0
2022-11-09T02:51:43.362Z,0
2022-11-09T02:52:59.652Z,0
2022-11-09T02:54:15.936Z,0
2022-11-09T02:55:32.223Z,0
2022-11-09T02:56:48.534Z,0
2022-11-09T02:58:04.832Z,0
2022-11-09T02:59:21.111Z,0
2022-11-09T03:00:37.410Z,0
2022-11-09T03:01:53.687Z,0
2022-11-09T03:03:09.988Z,0
2022-11-09T03:04:26.278Z,0
2022-11-09T03:05:41.582Z,0
2022-11-09T03:06:57.881Z,0
2022-11-09T03:08:14.172Z,0
2022-11-09T03:09:30.470Z,0
2022-11-09T03:10:46.754Z,0
2022-11-09T03:12:03.067Z,0
2022-11-09T03:13:19.347Z,0
2022-11-09T03:14:35.629Z,0
2022-11-09T03:15:51.946Z,0
2022-11-09T03:17:08.227Z,0
2022-11-09T03:18:24.507Z,0
2022-11-09T03:19:40.805Z,0
2022-11-09T03:20:57.120Z,0
2022-11-09T03:22:12.411Z,0
2022-11-09T03:23:28.701Z,0
2022-11-09T03:24:44.991Z,0
2022-11-09T03:26:01.278Z,0
2022-11-09T03:27:17.595Z,0
2022-11-09T03:28:33.871Z,0
2022-11-09T03:29:50.155Z,0
2022-11-09T03:31:06.450Z,0
2022-11-09T03:32:22.748Z,0
2022-11-09T03:33:39.044Z,0
2022-11-09T03:34:55.337Z,0
2022-11-09T03:36:11.620Z,0
2022-11-09T03:37:27.921Z,0
2022-11-09T03:38:43.222Z,0
2022-11-09T03:39:59.519Z,0
2022-11-09T03:42:32.098Z,0
2022-11-09T03:43:48.397Z,0
2022-11-09T03:45:04.699Z,0
2022-11-09T03:46:21.004Z,0
2022-11-09T03:47:37.272Z,0
2022-11-09T03:48:53.563Z,0
2022-11-09T03:50:09.867Z,0
2022-11-09T03:52:42.446Z,0
2022-11-09T03:53:58.728Z,0
2022-11-09T03:55:14.053Z,0
2022-11-09T03:56:30.334Z,0
2022-11-09T03:57:46.631Z,0
2022-11-09T03:59:02.921Z,0
2022-11-09T04:00:19.220Z,0
2022-11-09T04:01:35.500Z,0
2022-11-09T04:02:50.814Z,0
2022-11-09T04:04:07.108Z,0
2022-11-09T04:05:23.402Z,0
2022-11-09T04:06:39.715Z,0
2022-11-09T04:07:56.012Z,0
2022-11-09T04:09:12.281Z,0
2022-11-09T04:10:28.584Z,0
2022-11-09T04:11:44.862Z,0
2022-11-09T04:13:01.156Z,0
2022-11-09T04:14:17.445Z,0
2022-11-09T04:15:33.755Z,0
2022-11-09T04:16:50.034Z,0
2022-11-09T04:18:06.336Z,0
2022-11-09T04:19:21.650Z,0
2022-11-09T04:20:37.925Z,0
2022-11-09T04:21:54.234Z,0
2022-11-09T04:23:10.520Z,0
2022-11-09T04:24:26.811Z,0
2022-11-09T04:25:43.100Z,0
2022-11-09T04:26:59.394Z,0
2022-11-09T04:28:15.695Z,0
2022-11-09T04:29:31.976Z,0
2022-11-09T04:30:48.268Z,0
2022-11-09T04:32:04.571Z,0
2022-11-09T04:33:20.860Z,0
2022-11-09T04:34:37.146Z,0
2022-11-09T04:35:52.449Z,0
2022-11-09T04:37:08.751Z,0
2022-11-09T04:38:25.045Z,0
2022-11-09T04:39:41.334Z,0
2022-11-09T04:40:57.629Z,0
2022-11-09T04:42:13.920Z,0
2022-11-09T04:43:30.223Z,0
2022-11-09T04:44:46.511Z,0
2022-11-09T04:46:02.807Z,0
2022-11-09T04:47:19.084Z,0
2022-11-09T04:48:35.380Z,0
2022-11-09T04:49:51.679Z,0
2022-11-09T04:51:07.962Z,0
2022-11-09T04:52:23.269Z,0
2022-11-09T04:53:39.571Z,0
2022-11-09T04:54:55.862Z,0
2022-11-09T04:56:12.162Z,0
2022-11-09T04:57:28.454Z,0
2022-11-09T04:58:44.751Z,0
2022-11-09T05:00:01.038Z,0
2022-11-09T05:01:17.323Z,0
2022-11-09T05:02:33.616Z,0
2022-11-09T05:03:49.914Z,0
2022-11-09T05:05:06.202Z,0
2022-11-09T05:06:22.492Z,0
2022-11-09T05:07:38.792Z,0
2022-11-09T05:08:54.104Z,0
2022-11-09T05:10:10.394Z,0
2022-11-09T05:11:26.678Z,0
2022-11-09T05:12:42.977Z,0
2022-11-09T05:13:59.266Z,0
2022-11-09T05:15:15.567Z,0
2022-11-09T05:16:31.858Z,0
2022-11-09T05:17:48.148Z,0
2022-11-09T05:19:04.442Z,0
2022-11-09T05:20:20.730Z,0
2022-11-09T05:21:37.016Z,0
2022-11-09T05:22:53.318Z,0
2022-11-09T05:24:09.607Z,0
2022-11-09T05:25:24.929Z,0
2022-11-09T05:26:41.205Z,0
2022-11-09T05:27:57.496Z,0
2022-11-09T05:29:13.798Z,0
2022-11-09T05:30:30.087Z,0
2022-11-09T05:31:46.379Z,0
2022-11-09T05:33:02.676Z,0
2022-11-09T05:34:18.969Z,0
2022-11-09T05:35:35.252Z,0
2022-11-09T05:36:51.552Z,0
2022-11-09T05:38:07.846Z,0
2022-11-09T05:39:24.127Z,0
2022-11-09T05:40:40.437Z,0
2022-11-09T05:41:55.745Z,0
2022-11-09T05:43:12.032Z,0
2022-11-09T05:44:28.323Z,0
2022-11-09T05:45:44.622Z,0
2022-11-09T05:47:00.901Z,0
2022-11-09T05:48:17.206Z,0
2022-11-09T05:49:33.437Z,0
2022-11-09T05:50:49.725Z,0
2022-11-09T05:52:06.029Z,0
2022-11-09T05:53:22.310Z,0
2022-11-09T05:54:38.607Z,0
2022-11-09T05:55:54.853Z,0
2022-11-09T05:57:11.162Z,0
2022-11-09T05:58:26.465Z,0
2022-11-09T05:59:42.756Z,0
2022-11-09T06:00:59.010Z,0
2022-11-09T06:02:15.256Z,0
2022-11-09T06:03:31.494Z,0
2022-11-09T06:04:47.731Z,0
2022-11-09T06:06:03.967Z,0
2022-11-09T06:07:20.218Z,0
2022-11-09T06:08:36.447Z,0
2022-11-09T06:09:52.690Z,0
2022-11-09T06:11:08.937Z,0
2022-11-09T06:12:25.161Z,0
2022-11-09T06:13:41.413Z,0
2022-11-09T06:14:56.661Z,0
2022-11-09T06:16:12.901Z,0
2022-11-09T06:17:29.140Z,0
2022-11-09T06:18:45.381Z,0
2022-11-09T06:20:01.623Z,0
2022-11-09T06:21:17.847Z,0
2022-11-09T06:22:34.104Z,0
2022-11-09T06:23:50.335Z,0
2022-11-09T06:25:06.569Z,0
2022-11-09T06:26:22.813Z,0
2022-11-09T06:27:39.054Z,0
2022-11-09T06:28:55.288Z,0
2022-11-09T06:30:11.527Z,0
2022-11-09T06:31:26.782Z,0
2022-11-09T06:32:43.017Z,0
2022-11-09T06:33:59.260Z,0
2022-11-09T06:35:15.000Z,0
2022-11-09T06:36:31.738Z,0
2022-11-09T06:37:47.971Z,0
2022-11-09T06:39:04.217Z,0
2022-11-09T06:40:20.450Z,0
2022-11-09T06:41:36.684Z,0
2022-11-09T06:42:52.942Z,0
2022-11-09T06:44:09.169Z,0
2022-11-09T06:45:25.403Z,0
2022-11-09T06:46:41.647Z,0
2022-11-09T06:47:56.897Z,0
2022-11-09T06:49:13.140Z,0
2022-11-09T06:50:29.372Z,0
2022-11-09T06:51:45.631Z,0
2022-11-09T06:53:01.863Z,0
2022-11-09T06:54:18.096Z,0
2022-11-09T06:55:34.329Z,0
2022-11-09T06:56:50.575Z,0
2022-11-09T06:58:06.809Z,0
2022-11-09T06:59:23.057Z,0
2022-11-09T07:00:39.290Z,0
2022-11-09T07:01:55.542Z,0
2022-11-09T07:03:11.770Z,0
2022-11-09T07:04:27.034Z,0
2022-11-09T07:05:43.262Z,0
2022-11-09T07:06:59.501Z,0
2022-11-09T07:08:15.749Z,0
2022-11-09T07:09:31.993Z,0
2022-11-09T07:10:48.226Z,0
2022-11-09T07:12:04.467Z,0
2022-11-09T07:13:20.709Z,0
2022-11-09T07:14:36.955Z,0
2022-11-09T07:15:53.175Z,0
2022-11-09T07:17:09.423Z,0
2022-11-09T07:18:25.664Z,0
2022-11-09T07:19:41.903Z,0
2022-11-09T07:20:57.158Z,0
2022-11-09T07:22:13.397Z,0
2022-11-09T07:23:29.624Z,0
2022-11-09T07:24:45.876Z,0
2022-11-09T07:26:02.118Z,0
2022-11-09T07:27:18.349Z,0
2022-11-09T07:28:34.586Z,0
2022-11-09T07:29:50.836Z,0
2022-11-09T07:31:07.069Z,0
2022-11-09T07:32:23.307Z,0
2022-11-09T07:33:39.556Z,0
2022-11-09T07:34:55.776Z,0
2022-11-09T07:36:12.027Z,0
2022-11-09T07:37:27.288Z,0
2022-11-09T07:38:43.528Z,0
2022-11-09T07:39:59.762Z,0
2022-11-09T07:41:15.992Z,0
2022-11-09T07:42:32.233Z,0
2022-11-09T07:43:48.483Z,0
2022-11-09T07:45:04.718Z,0
2022-11-09T07:46:20.946Z,0
2022-11-09T07:47:37.192Z,0
2022-11-09T07:48:53.436Z,0
2022-11-09T07:50:09.670Z,0
2022-11-09T07:51:25.904Z,0
2022-11-09T07:52:42.160Z,0
2022-11-09T07:53:57.405Z,0
2022-11-09T07:55:13.637Z,0
2022-11-09T07:56:29.889Z,0
2022-11-09T07:57:46.126Z,0
2022-11-09T07:59:02.358Z,0
2022-11-09T08:00:18.606Z,0
2022-11-09T08:01:34.853Z,0
2022-11-09T08:02:51.074Z,0
2022-11-09T08:04:07.316Z,0
2022-11-09T08:05:23.559Z,0
2022-11-09T08:06:39.801Z,0
2022-11-09T08:07:56.047Z,0
2022-11-09T08:09:12.270Z,0
2022-11-09T08:10:27.541Z,0
2022-11-09T08:11:43.772Z,0
2022-11-09T08:13:00.003Z,5
2022-11-09T08:14:16.260Z,5
2022-11-09T08:15:32.489Z,5
2022-11-09T08:16:48.732Z,5
2022-11-09T08:18:03.992Z,5
2022-11-09T08:19:20.239Z,5
2022-11-09T08:20:36.461Z,5
2022-11-09T08:21:52.709Z,5
2022-11-09T08:23:08.948Z,5
2022-11-09T08:24:25.187Z,5
2022-11-09T08:25:41.419Z,5
2022-11-09T08:26:57.662Z,5
2022-11-09T08:28:13.898Z,5
2022-11-09T08:29:30.137Z,5
2022-11-09T08:30:46.380Z,5
2022-11-09T08:32:02.627Z,5
2022-11-09T08:33:18.856Z,5
2022-11-09T08:34:34.121Z,5
2022-11-09T08:35:50.343Z,5
2022-11-09T08:37:06.583Z,5
2022-11-09T08:38:22.833Z,5
2022-11-09T08:39:39.069Z,5
2022-11-09T08:40:55.315Z,5
2022-11-09T08:42:11.542Z,11
2022-11-09T08:43:27.784Z,11
2022-11-09T08:44:44.016Z,11
2022-11-09T08:46:00.267Z,11
2022-11-09T08:47:16.505Z,11
2022-11-09T08:48:32.739Z,11
2022-11-09T08:49:48.971Z,11
2022-11-09T08:51:04.238Z,11
2022-11-09T08:52:20.464Z,11
2022-11-09T08:53:36.717Z,11
2022-11-09T08:54:52.948Z,11
2022-11-09T08:56:09.188Z,16
2022-11-09T08:57:25.440Z,16
2022-11-09T08:58:41.666Z,16
2022-11-09T08:59:57.905Z,16
2022-11-09T09:01:14.149Z,16
2022-11-09T09:02:30.381Z,16
2022-11-09T09:03:46.615Z,16
2022-11-09T09:05:02.865Z,16
2022-11-09T09:06:19.110Z,16
2022-11-09T09:07:34.353Z,16
2022-11-09T09:08:50.602Z,16
2022-11-09T09:10:06.835Z,16
2022-11-09T09:11:23.069Z,16
2022-11-09T09:12:39.313Z,16
2022-11-09T09:13:55.559Z,22
2022-11-09T09:15:11.786Z,22
2022-11-09T09:16:28.033Z,22
2022-11-09T09:17:44.269Z,22
2022-11-09T09:19:00.519Z,22
2022-11-09T09:20:16.000Z,22
2022-11-09T09:21:32.988Z,28
2022-11-09T09:22:49.224Z,28
2022-11-09T09:24:04.489Z,28
2022-11-09T09:25:20.728Z,28
2022-11-09T09:26:36.968Z,28
2022-11-09T09:27:53.194Z,33
2022-11-09T09:29:09.457Z,33
2022-11-09T09:30:25.685Z,33
2022-11-09T09:31:41.933Z,33
2022-11-09T09:32:58.169Z,33
2022-11-09T09:34:14.402Z,33
2022-11-09T09:35:30.641Z,33
2022-11-09T09:36:46.880Z,33
2022-11-09T09:38:03.116Z,33
2022-11-09T09:39:19.356Z,39
2022-11-09T09:40:34.614Z,33
2022-11-09T09:41:50.843Z,33
2022-11-09T09:43:07.096Z,33
2022-11-09T09:44:23.334Z,33
2022-11-09T09:45:39.577Z,33
2022-11-09T09:46:55.808Z,33
2022-11-09T09:48:12.042Z,33
2022-11-09T09:49:28.284Z,33
2022-11-09T09:50:44.526Z,33
2022-11-09T09:52:00.759Z,33
2022-11-09T09:53:17.014Z,39
2022-11-09T09:54:33.237Z,45
2022-11-09T09:55:49.473Z,45
2022-11-09T09:57:04.733Z,45
2022-11-09T09:58:20.979Z,45
2022-11-09T09:59:37.219Z,45
2022-11-09T10:00:53.447Z,45
2022-11-09T10:02:09.688Z,50
2022-11-09T10:03:25.932Z,50
2022-11-09T10:04:42.178Z,39
2022-11-09T10:05:58.418Z,45
2022-11-09T10:07:14.643Z,33
2022-11-09T10:08:30.896Z,33
2022-11-09T10:09:47.135Z,28
2022-11-09T10:12:19.602Z,28
2022-11-09T10:13:34.861Z,33
2022-11-09T10:14:51.100Z,33
2022-11-09T10:16:07.332Z,39
2022-11-09T10:17:23.570Z,39
2022-11-09T10:18:39.808Z,45
2022-11-09T10:19:56.046Z,50
2022-11-09T10:21:12.289Z,78
2022-11-09T10:22:28.537Z,112
2022-11-09T10:23:44.772Z,123
2022-11-09T10:25:01.011Z,140
2022-11-09T10:26:17.248Z,151
2022-11-09T10:27:33.487Z,163
2022-11-09T10:28:49.730Z,157
2022-11-09T10:30:04.980Z,163
2022-11-09T10:31:21.223Z,163
2022-11-09T10:32:37.450Z,174
2022-11-09T10:33:53.702Z,163
2022-11-09T10:35:09.936Z,174
2022-11-09T10:36:26.167Z,180
2022-11-09T10:37:42.412Z,191
2022-11-09T10:38:58.651Z,191
2022-11-09T10:40:14.892Z,196
2022-11-09T10:41:31.127Z,174
2022-11-09T10:42:47.366Z,95
2022-11-09T10:44:03.599Z,61
2022-11-09T10:45:19.845Z,95
2022-11-09T10:46:35.098Z,118
2022-11-09T10:47:51.325Z,180
2022-11-09T10:49:07.567Z,168
2022-11-09T10:50:23.832Z,196
2022-11-09T10:51:40.051Z,180
2022-11-09T10:52:56.287Z,213
2022-11-09T10:54:12.524Z,135
2022-11-09T10:55:28.770Z,202
2022-11-09T10:56:45.002Z,174
2022-11-09T10:58:01.236Z,174
2022-11-09T10:59:17.481Z,174
2022-11-09T11:00:33.721Z,112
2022-11-09T11:01:49.971Z,106
2022-11-09T11:03:05.210Z,135
2022-11-09T11:04:21.455Z,84
2022-11-09T11:05:37.701Z,90
2022-11-09T11:06:53.942Z,67
2022-11-09T11:08:10.171Z,61
2022-11-09T11:09:26.403Z,56
2022-11-09T11:10:42.654Z,61
2022-11-09T11:11:58.886Z,67
2022-11-09T11:13:15.124Z,61
2022-11-09T11:14:31.366Z,61
2022-11-09T11:15:47.610Z,61
2022-11-09T11:17:03.836Z,50
2022-11-09T11:18:20.103Z,67
2022-11-09T11:19:35.333Z,129
2022-11-09T11:20:51.568Z,90
2022-11-09T11:22:07.811Z,84
2022-11-09T11:23:24.047Z,61
2022-11-09T11:24:40.300Z,84
2022-11-09T11:25:56.536Z,90
2022-11-09T11:27:12.766Z,101
2022-11-09T11:28:29.007Z,146
2022-11-09T11:29:45.240Z,135
2022-11-09T11:31:01.487Z,129
2022-11-09T11:32:17.717Z,73
2022-11-09T11:33:33.965Z,56
2022-11-09T11:34:50.207Z,50
2022-11-09T11:36:05.456Z,50
2022-11-09T11:37:21.703Z,45
2022-11-09T11:38:37.945Z,39
2022-11-09T11:39:54.166Z,33
2022-11-09T11:41:10.417Z,28
2022-11-09T11:42:26.654Z,28
2022-11-09T11:43:42.893Z,28
2022-11-09T11:44:59.120Z,22
2022-11-09T11:46:15.372Z,22
2022-11-09T11:47:31.614Z,22
2022-11-09T11:48:47.846Z,22
2022-11-09T11:50:04.072Z,22
2022-11-09T11:51:20.318Z,22
2022-11-09T11:52:35.569Z,22
2022-11-09T11:53:51.816Z,28
2022-11-09T11:55:08.050Z,28
2022-11-09T11:56:24.283Z,28
2022-11-09T11:57:40.532Z,28
2022-11-09T11:58:56.774Z,28
2022-11-09T12:00:13.001Z,28
2022-11-09T12:01:29.258Z,28
2022-11-09T12:02:45.486Z,28
2022-11-09T12:04:01.717Z,28
2022-11-09T12:05:17.962Z,22
2022-11-09T12:06:34.201Z,22
2022-11-09T12:07:50.446Z,22
2022-11-09T12:09:05.696Z,22
2022-11-09T12:10:21.928Z,22
2022-11-09T12:11:38.162Z,22
2022-11-09T12:12:54.397Z,22
2022-11-09T12:14:10.636Z,22
2022-11-09T12:15:26.881Z,28
2022-11-09T12:16:43.118Z,28
2022-11-09T12:17:59.366Z,33
2022-11-09T12:19:15.594Z,33
2022-11-09T12:20:31.832Z,33
2022-11-09T12:21:48.067Z,33
2022-11-09T12:23:04.307Z,33
2022-11-09T12:24:20.552Z,33
2022-11-09T12:25:35.808Z,33
2022-11-09T12:26:52.035Z,33
2022-11-09T12:28:08.280Z,39
2022-11-09T12:29:24.513Z,39
2022-11-09T12:30:40.763Z,45
2022-11-09T12:31:56.991Z,45
2022-11-09T12:33:12.253Z,50
2022-11-09T12:34:28.496Z,73
2022-11-09T12:35:44.734Z,73
2022-11-09T12:37:00.985Z,73
2022-11-09T12:38:17.206Z,157
2022-11-09T12:39:33.448Z,146
2022-11-09T12:40:49.697Z,185
2022-11-09T12:42:05.933Z,241
2022-11-09T12:43:22.155Z,247
2022-11-09T12:44:38.408Z,219
2022-11-09T12:45:54.638Z,247
2022-11-09T12:47:10.875Z,241
2022-11-09T12:48:27.117Z,258
2022-11-09T12:49:42.374Z,230
2022-11-09T12:50:58.606Z,230
2022-11-09T12:52:14.863Z,236
2022-11-09T12:53:31.096Z,253
2022-11-09T12:54:47.338Z,253
2022-11-09T12:57:19.798Z,230
2022-11-09T12:58:36.040Z,225
2022-11-09T12:59:52.290Z,208
2022-11-09T13:01:08.517Z,225
2022-11-09T13:02:24.753Z,219
2022-11-09T13:03:40.992Z,230
2022-11-09T13:04:57.233Z,230
2022-11-09T13:06:12.491Z,258
2022-11-09T13:07:28.738Z,208
2022-11-09T13:08:44.979Z,303
2022-11-09T13:10:01.213Z,309
2022-11-09T13:11:17.437Z,270
2022-11-09T13:12:33.688Z,253
2022-11-09T13:13:49.923Z,270
2022-11-09T13:15:06.169Z,298
2022-11-09T13:16:22.392Z,303
2022-11-09T13:17:38.643Z,258
2022-11-09T13:18:54.881Z,219
2022-11-09T13:20:11.138Z,281
2022-11-09T13:21:27.362Z,275
2022-11-09T13:22:42.614Z,292
2022-11-09T13:23:58.851Z,286
2022-11-09T13:25:15.100Z,247
2022-11-09T13:26:31.325Z,219
2022-11-09T13:27:47.559Z,213
2022-11-09T13:29:03.798Z,219
2022-11-09T13:30:20.054Z,208
2022-11-09T13:31:36.289Z,213
2022-11-09T13:32:52.525Z,185
2022-11-09T13:34:08.754Z,163
2022-11-09T13:35:25.004Z,129
2022-11-09T13:36:41.242Z,129
2022-11-09T13:37:57.479Z,84
2022-11-09T13:39:12.725Z,90
2022-11-09T13:40:28.975Z,95
2022-11-09T13:41:45.217Z,84
2022-11-09T13:43:01.462Z,84
2022-11-09T13:44:17.681Z,67
2022-11-09T13:45:33.918Z,73
2022-11-09T13:46:50.160Z,67
2022-11-09T13:48:06.407Z,78
2022-11-09T13:49:22.641Z,95
2022-11-09T13:50:38.895Z,101
2022-11-09T13:51:55.117Z,101
2022-11-09T13:53:11.353Z,84
2022-11-09T13:54:27.608Z,50
2022-11-09T13:55:42.848Z,67
2022-11-09T13:56:59.102Z,61
2022-11-09T13:58:15.349Z,50
2022-11-09T13:59:31.570Z,67
2022-11-09T14:00:47.828Z,73
2022-11-09T14:02:04.053Z,67
2022-11-09T14:03:20.280Z,56
2022-11-09T14:04:36.526Z,56
2022-11-09T14:05:52.784Z,61
2022-11-09T14:07:09.010Z,61
2022-11-09T14:08:25.256Z,73
2022-11-09T14:09:41.480Z,84
2022-11-09T14:10:57.728Z,78
2022-11-09T14:12:12.963Z,73
2022-11-09T14:13:29.214Z,78
2022-11-09T14:14:45.458Z,90
2022-11-09T14:16:01.708Z,106
2022-11-09T14:17:17.920Z,106
2022-11-09T14:18:34.162Z,123
2022-11-09T14:19:50.401Z,151
2022-11-09T14:21:06.657Z,168
2022-11-09T14:22:22.886Z,129
2022-11-09T14:23:39.129Z,123
2022-11-09T14:24:55.371Z,101
2022-11-09T14:26:11.604Z,95
2022-11-09T14:27:27.830Z,84
2022-11-09T14:28:43.094Z,78
2022-11-09T14:29:59.330Z,67
2022-11-09T14:31:15.573Z,61
2022-11-09T14:32:31.799Z,56
2022-11-09T14:33:48.050Z,56
2022-11-09T14:35:04.286Z,50
2022-11-09T14:36:20.516Z,39
2022-11-09T14:37:36.770Z,39
2022-11-09T14:38:53.008Z,28
2022-11-09T14:40:09.249Z,22
2022-11-09T14:41:25.483Z,22
2022-11-09T14:42:41.724Z,16
2022-11-09T14:43:57.969Z,16
2022-11-09T14:45:13.200Z,16
2022-11-09T14:46:29.439Z,16
2022-11-09T14:47:45.698Z,11
2022-11-09T14:49:01.932Z,11
2022-11-09T14:50:18.167Z,11
2022-11-09T14:51:34.404Z,11
2022-11-09T14:52:50.648Z,11
2022-11-09T14:54:06.885Z,11
2022-11-09T14:55:23.111Z,5
2022-11-09T14:56:39.358Z,5
2022-11-09T14:57:55.588Z,5
2022-11-09T14:59:11.852Z,5
2022-11-09T15:00:28.071Z,5
2022-11-09T15:01:43.324Z,5
2022-11-09T15:02:59.570Z,5
2022-11-09T15:04:15.817Z,5
2022-11-09T15:05:32.053Z,0
2022-11-09T15:06:48.289Z,0
2022-11-09T15:08:04.525Z,0
2022-11-09T15:09:20.763Z,0
2022-11-09T15:10:36.996Z,0
2022-11-09T15:11:53.231Z,0
2022-11-09T15:13:09.471Z,0
2022-11-09T15:14:25.724Z,0
2022-11-09T15:15:41.959Z,0
2022-11-09T15:16:58.204Z,0
2022-11-09T15:18:13.441Z,0
2022-11-09T15:19:29.696Z,0
2022-11-09T15:20:45.912Z,0
2022-11-09T15:22:02.168Z,0
2022-11-09T15:23:18.392Z,0
2022-11-09T15:24:34.626Z,0
2022-11-09T15:25:50.868Z,0
2022-11-09T15:27:07.110Z,0
2022-11-09T15:28:23.352Z,0
2022-11-09T15:29:39.579Z,0
2022-11-09T15:30:55.820Z,0
2022-11-09T15:32:12.069Z,0
2022-11-09T15:33:28.295Z,0
2022-11-09T15:34:43.561Z,0
2022-11-09T15:35:59.787Z,0
2022-11-09T15:37:16.044Z,0
2022-11-09T15:38:32.282Z,0
2022-11-09T15:39:48.523Z,0
2022-11-09T15:41:04.746Z,0
2022-11-09T15:42:20.981Z,0
2022-11-09T15:43:37.224Z,0
2022-11-09T15:44:53.471Z,0
2022-11-09T15:46:09.722Z,0
2022-11-09T15:47:25.970Z,0
2022-11-09T15:48:42.189Z,0
2022-11-09T15:49:58.452Z,0
2022-11-09T15:51:13.676Z,0
2022-11-09T15:52:29.928Z,0
2022-11-09T15:53:46.165Z,0
2022-11-09T15:55:02.424Z,0
2022-11-09T15:56:18.647Z,0
2022-11-09T15:57:34.935Z,0
2022-11-09T15:58:51.218Z,0
2022-11-09T16:00:07.522Z,0
2022-11-09T16:01:23.807Z,0
2022-11-09T16:02:40.114Z,0
2022-11-09T16:03:56.402Z,0
2022-11-09T16:05:12.698Z,0
2022-11-09T16:06:28.985Z,0
2022-11-09T16:07:44.296Z,0
2022-11-09T16:09:00.567Z,0
2022-11-09T16:10:16.876Z,0
2022-11-09T16:11:33.169Z,0
2022-11-09T16:12:49.451Z,0
2022-11-09T16:14:05.749Z,0
2022-11-09T16:15:22.035Z,0
2022-11-09T16:16:38.329Z,0
2022-11-09T16:17:54.623Z,0
2022-11-09T16:19:10.911Z,0
2022-11-09T16:20:27.206Z,0
2022-11-09T16:21:43.497Z,0
2022-11-09T16:22:59.785Z,0
2022-11-09T16:24:15.112Z,0
2022-11-09T16:25:31.400Z,0
2022-11-09T16:26:47.703Z,0
2022-11-09T16:28:03.990Z,0
2022-11-09T16:29:20.275Z,0
2022-11-09T16:30:36.578Z,0
2022-11-09T16:31:52.860Z,0
2022-11-09T16:33:09.170Z,0
2022-11-09T16:34:25.436Z,0
2022-11-09T16:35:41.731Z,0
2022-11-09T16:36:58.035Z,0
2022-11-09T16:38:14.323Z,0
2022-11-09T16:39:30.615Z,0
2022-11-09T16:40:45.911Z,0
2022-11-09T16:42:02.221Z,0
2022-11-09T16:43:18.507Z,0
2022-11-09T16:44:34.798Z,0
2022-11-09T16:45:51.103Z,0
2022-11-09T16:47:07.372Z,0
2022-11-09T16:48:22.688Z,0
2022-11-09T16:49:38.989Z,0
2022-11-09T16:50:55.296Z,0
2022-11-09T16:52:11.563Z,0
2022-11-09T16:53:27.862Z,0
2022-11-09T16:54:44.153Z,0
2022-11-09T16:56:00.461Z,0
2022-11-09T16:57:16.734Z,0
2022-11-09T16:58:33.031Z,0
2022-11-09T16:59:49.335Z,0
2022-11-09T17:01:05.617Z,0
2022-11-09T17:02:21.902Z,0
2022-11-09T17:03:38.213Z,0
2022-11-09T17:04:53.523Z,0
2022-11-09T17:06:09.817Z,0
2022-11-09T17:07:26.090Z,0
2022-11-09T17:08:42.383Z,0
2022-11-09T17:09:58.689Z,0
2022-11-09T17:11:14.984Z,0
2022-11-09T17:12:31.276Z,0
2022-11-09T17:13:47.553Z,0
2022-11-09T17:15:03.842Z,0
2022-11-09T17:16:20.151Z,0
2022-11-09T17:17:36.445Z,0
2022-11-09T17:18:52.719Z,0
2022-11-09T17:20:09.017Z,0
2022-11-09T17:21:24.323Z,0
2022-11-09T17:22:40.612Z,0
2022-11-09T17:23:56.912Z,0
2022-11-09T17:25:13.212Z,0
2022-11-09T17:26:29.505Z,0
2022-11-09T17:27:45.783Z,0
2022-11-09T17:29:02.084Z,0
2022-11-09T17:30:18.370Z,0
2022-11-09T17:31:34.679Z,0
2022-11-09T17:32:50.960Z,0
2022-11-09T17:34:07.269Z,0
2022-11-09T17:35:23.559Z,0
2022-11-09T17:36:39.855Z,0
2022-11-09T17:37:55.137Z,0
2022-11-09T17:39:11.434Z,0
2022-11-09T17:40:27.738Z,0
2022-11-09T17:41:44.051Z,0
2022-11-09T17:43:00.320Z,0
2022-11-09T17:44:16.605Z,0
2022-11-09T17:45:32.914Z,0
2022-11-09T17:46:49.217Z,0
2022-11-09T17:48:05.478Z,0
2022-11-09T17:49:21.788Z,0
2022-11-09T17:50:38.063Z,0
2022-11-09T17:51:54.358Z,0
2022-11-09T17:53:10.647Z,0
2022-11-09T17:54:25.000Z,0
2022-11-09T17:55:42.249Z,0
2022-11-09T17:56:58.551Z,0
2022-11-09T17:58:14.852Z,0
2022-11-09T17:59:31.137Z,0
2022-11-09T18:00:47.435Z,0
2022-11-09T18:02:03.748Z,0
2022-11-09T18:03:20.005Z,0
2022-11-09T18:04:36.313Z,0
2022-11-09T18:05:52.587Z,0
2022-11-09T18:07:08.902Z,0
2022-11-09T18:08:25.191Z,0
2022-11-09T18:09:41.495Z,0
2022-11-09T18:10:56.790Z,0
2022-11-09T18:12:13.080Z,0
2022-11-09T18:13:29.359Z,0
2022-11-09T18:14:45.655Z,0
2022-11-09T18:16:01.941Z,0
2022-11-09T18:17:18.243Z,0
2022-11-09T18:18:34.540Z,0
2022-11-09T18:19:50.832Z,0
2022-11-09T18:21:07.111Z,0
2022-11-09T18:22:23.415Z,0
2022-11-09T18:23:39.715Z,0
2022-11-09T18:24:55.997Z,0
2022-11-09T18:26:12.293Z,0
2022-11-09T18:27:27.611Z,0
2022-11-09T18:28:43.881Z,0
2022-11-09T18:30:00.181Z,0
2022-11-09T18:31:16.469Z,0
2022-11-09T18:32:32.761Z,0
2022-11-09T18:33:49.071Z,0